sensor_id;sensor_type;location;lat;lon;timestamp;temperature;humidity
16412;DHT22;8315;52.104;6.304;2023-03-01T00:02:05;0.50;98.40
16412;DHT22;8315;52.104;6.304;2023-03-01T00:04:32;0.50;98.40
16412;DHT22;8315;52.104;6.304;2023-03-01T00:07:01;0.60;98.40
16412;DHT22;8315;52.104;6.304;2023-03-01T00:09:28;0.50;98.40
16412;DHT22;8315;52.104;6.304;2023-03-01T00:11:56;0.40;98.40
16412;DHT22;8315;52.104;6.304;2023-03-01T00:14:23;0.40;98.40
16412;DHT22;8315;52.104;6.304;2023-03-01T00:16:49;0.40;98.40
16412;DHT22;8315;52.104;6.304;2023-03-01T00:19:17;0.40;98.40
16412;DHT22;8315;52.104;6.304;2023-03-01T00:21:44;0.30;98.40
16412;DHT22;8315;52.104;6.304;2023-03-01T00:24:11;0.20;98.40
16412;DHT22;8315;52.104;6.304;2023-03-01T00:26:38;0.20;98.40
16412;DHT22;8315;52.104;6.304;2023-03-01T00:29:06;0.20;98.40
16412;DHT22;8315;52.104;6.304;2023-03-01T00:31:34;0.20;98.40
16412;DHT22;8315;52.104;6.304;2023-03-01T00:34:01;0.20;98.40
16412;DHT22;8315;52.104;6.304;2023-03-01T00:36:30;0.20;98.40
16412;DHT22;8315;52.104;6.304;2023-03-01T00:38:57;0.20;98.40
16412;DHT22;8315;52.104;6.304;2023-03-01T00:41:25;0.30;98.40
16412;DHT22;8315;52.104;6.304;2023-03-01T00:43:53;0.10;98.40
16412;DHT22;8315;52.104;6.304;2023-03-01T00:46:22;0.20;98.40
16412;DHT22;8315;52.104;6.304;2023-03-01T00:48:50;0.10;98.40
16412;DHT22;8315;52.104;6.304;2023-03-01T00:51:17;0.00;98.40
16412;DHT22;8315;52.104;6.304;2023-03-01T00:53:46;0.00;98.40
16412;DHT22;8315;52.104;6.304;2023-03-01T00:56:15;0.00;98.40
16412;DHT22;8315;52.104;6.304;2023-03-01T00:58:43;0.00;98.40
16412;DHT22;8315;52.104;6.304;2023-03-01T01:01:10;0.10;98.40
16412;DHT22;8315;52.104;6.304;2023-03-01T01:03:44;0.10;98.40
16412;DHT22;8315;52.104;6.304;2023-03-01T01:06:15;0.00;98.40
16412;DHT22;8315;52.104;6.304;2023-03-01T01:08:43;0.00;98.40
16412;DHT22;8315;52.104;6.304;2023-03-01T01:11:11;-0.10;98.40
16412;DHT22;8315;52.104;6.304;2023-03-01T01:13:38;-0.10;98.40
16412;DHT22;8315;52.104;6.304;2023-03-01T01:16:06;-0.10;98.40
16412;DHT22;8315;52.104;6.304;2023-03-01T01:18:33;-0.20;98.40
16412;DHT22;8315;52.104;6.304;2023-03-01T01:21:06;-0.20;98.40
16412;DHT22;8315;52.104;6.304;2023-03-01T01:23:34;-0.20;98.40
16412;DHT22;8315;52.104;6.304;2023-03-01T01:26:04;-0.30;98.40
16412;DHT22;8315;52.104;6.304;2023-03-01T01:28:32;-0.30;98.40
16412;DHT22;8315;52.104;6.304;2023-03-01T01:30:59;-0.30;98.40
16412;DHT22;8315;52.104;6.304;2023-03-01T01:33:26;-0.40;98.40
16412;DHT22;8315;52.104;6.304;2023-03-01T01:35:52;-0.60;98.40
16412;DHT22;8315;52.104;6.304;2023-03-01T01:38:21;-0.50;98.40
16412;DHT22;8315;52.104;6.304;2023-03-01T01:40:48;-0.60;98.40
16412;DHT22;8315;52.104;6.304;2023-03-01T01:43:17;-0.60;98.40
16412;DHT22;8315;52.104;6.304;2023-03-01T01:45:48;-0.60;98.40
16412;DHT22;8315;52.104;6.304;2023-03-01T01:48:16;-0.60;98.40
16412;DHT22;8315;52.104;6.304;2023-03-01T01:50:45;-0.70;98.40
16412;DHT22;8315;52.104;6.304;2023-03-01T01:53:18;-0.60;98.40
16412;DHT22;8315;52.104;6.304;2023-03-01T01:55:49;-0.70;98.40
16412;DHT22;8315;52.104;6.304;2023-03-01T01:58:19;-0.70;98.40
16412;DHT22;8315;52.104;6.304;2023-03-01T02:00:47;-0.70;98.40
16412;DHT22;8315;52.104;6.304;2023-03-01T02:03:15;-0.70;98.40
16412;DHT22;8315;52.104;6.304;2023-03-01T02:05:45;-0.60;98.40
16412;DHT22;8315;52.104;6.304;2023-03-01T02:08:15;-0.60;98.40
16412;DHT22;8315;52.104;6.304;2023-03-01T02:10:45;-0.60;98.40
16412;DHT22;8315;52.104;6.304;2023-03-01T02:13:12;-0.70;98.40
16412;DHT22;8315;52.104;6.304;2023-03-01T02:15:39;-0.70;98.40
16412;DHT22;8315;52.104;6.304;2023-03-01T02:18:09;-0.80;98.40
16412;DHT22;8315;52.104;6.304;2023-03-01T02:20:38;-0.80;98.40
16412;DHT22;8315;52.104;6.304;2023-03-01T02:23:10;-0.80;98.40
16412;DHT22;8315;52.104;6.304;2023-03-01T02:25:39;-0.80;98.40
16412;DHT22;8315;52.104;6.304;2023-03-01T02:28:19;-0.80;98.40
16412;DHT22;8315;52.104;6.304;2023-03-01T02:30:50;-0.80;98.40
16412;DHT22;8315;52.104;6.304;2023-03-01T02:33:31;-0.90;98.40
16412;DHT22;8315;52.104;6.304;2023-03-01T02:36:01;-0.90;98.40
16412;DHT22;8315;52.104;6.304;2023-03-01T02:38:31;-0.90;98.40
16412;DHT22;8315;52.104;6.304;2023-03-01T02:40:58;-1.00;98.40
16412;DHT22;8315;52.104;6.304;2023-03-01T02:43:29;-1.00;98.40
16412;DHT22;8315;52.104;6.304;2023-03-01T02:45:58;-0.90;98.40
16412;DHT22;8315;52.104;6.304;2023-03-01T02:48:38;-0.90;98.40
16412;DHT22;8315;52.104;6.304;2023-03-01T02:51:07;-0.90;98.40
16412;DHT22;8315;52.104;6.304;2023-03-01T02:53:41;-0.90;98.40
16412;DHT22;8315;52.104;6.304;2023-03-01T02:56:14;-0.90;98.40
16412;DHT22;8315;52.104;6.304;2023-03-01T02:58:42;-1.00;98.40
16412;DHT22;8315;52.104;6.304;2023-03-01T03:01:13;-1.00;98.40
16412;DHT22;8315;52.104;6.304;2023-03-01T03:03:41;-1.00;98.40
16412;DHT22;8315;52.104;6.304;2023-03-01T03:06:08;-1.00;98.40
16412;DHT22;8315;52.104;6.304;2023-03-01T03:08:35;-1.10;98.40
16412;DHT22;8315;52.104;6.304;2023-03-01T03:11:02;-1.00;98.40
16412;DHT22;8315;52.104;6.304;2023-03-01T03:13:30;-1.00;98.40
16412;DHT22;8315;52.104;6.304;2023-03-01T03:15:58;-1.10;98.40
16412;DHT22;8315;52.104;6.304;2023-03-01T03:18:25;-1.10;98.40
16412;DHT22;8315;52.104;6.304;2023-03-01T03:20:53;-1.20;98.40
16412;DHT22;8315;52.104;6.304;2023-03-01T03:23:20;-1.20;98.40
16412;DHT22;8315;52.104;6.304;2023-03-01T03:25:48;-1.10;98.40
16412;DHT22;8315;52.104;6.304;2023-03-01T03:28:15;-1.20;98.40
16412;DHT22;8315;52.104;6.304;2023-03-01T03:30:42;-1.20;98.40
16412;DHT22;8315;52.104;6.304;2023-03-01T03:33:11;-1.20;98.40
16412;DHT22;8315;52.104;6.304;2023-03-01T03:35:40;-1.30;98.40
16412;DHT22;8315;52.104;6.304;2023-03-01T03:38:08;-1.30;98.40
16412;DHT22;8315;52.104;6.304;2023-03-01T03:40:41;-1.20;98.40
16412;DHT22;8315;52.104;6.304;2023-03-01T03:43:11;-1.20;98.40
16412;DHT22;8315;52.104;6.304;2023-03-01T03:45:38;-1.20;98.40
16412;DHT22;8315;52.104;6.304;2023-03-01T03:48:06;-1.10;98.40
16412;DHT22;8315;52.104;6.304;2023-03-01T03:50:36;-1.20;98.40
16412;DHT22;8315;52.104;6.304;2023-03-01T03:53:03;-1.20;98.40
16412;DHT22;8315;52.104;6.304;2023-03-01T03:55:31;-1.20;98.40
16412;DHT22;8315;52.104;6.304;2023-03-01T03:57:59;-1.20;98.40
16412;DHT22;8315;52.104;6.304;2023-03-01T04:00:32;-1.20;98.40
16412;DHT22;8315;52.104;6.304;2023-03-01T04:02:59;-1.10;98.40
16412;DHT22;8315;52.104;6.304;2023-03-01T04:05:26;-1.10;98.40
16412;DHT22;8315;52.104;6.304;2023-03-01T04:07:55;-1.00;98.40
16412;DHT22;8315;52.104;6.304;2023-03-01T04:10:33;-1.10;98.40
16412;DHT22;8315;52.104;6.304;2023-03-01T04:13:01;-1.10;98.40
16412;DHT22;8315;52.104;6.304;2023-03-01T04:15:29;-1.20;98.40
16412;DHT22;8315;52.104;6.304;2023-03-01T04:17:58;-1.10;98.40
16412;DHT22;8315;52.104;6.304;2023-03-01T04:20:26;-1.10;98.40
16412;DHT22;8315;52.104;6.304;2023-03-01T04:22:58;-1.10;98.40
16412;DHT22;8315;52.104;6.304;2023-03-01T04:25:33;-1.10;98.40
16412;DHT22;8315;52.104;6.304;2023-03-01T04:28:00;-1.10;98.40
16412;DHT22;8315;52.104;6.304;2023-03-01T04:30:27;-1.20;98.40
16412;DHT22;8315;52.104;6.304;2023-03-01T04:32:54;-1.30;98.40
16412;DHT22;8315;52.104;6.304;2023-03-01T04:35:21;-1.30;98.40
16412;DHT22;8315;52.104;6.304;2023-03-01T04:37:49;-1.30;98.40
16412;DHT22;8315;52.104;6.304;2023-03-01T04:40:17;-1.20;98.40
16412;DHT22;8315;52.104;6.304;2023-03-01T04:42:44;-1.20;98.40
16412;DHT22;8315;52.104;6.304;2023-03-01T04:45:11;-1.30;98.40
16412;DHT22;8315;52.104;6.304;2023-03-01T04:47:39;-1.30;98.40
16412;DHT22;8315;52.104;6.304;2023-03-01T04:50:08;-1.30;98.40
16412;DHT22;8315;52.104;6.304;2023-03-01T04:52:36;-1.30;98.40
16412;DHT22;8315;52.104;6.304;2023-03-01T04:55:03;-1.30;98.40
16412;DHT22;8315;52.104;6.304;2023-03-01T04:57:32;-1.40;98.40
16412;DHT22;8315;52.104;6.304;2023-03-01T05:00:00;-1.40;98.40
16412;DHT22;8315;52.104;6.304;2023-03-01T05:02:26;-1.40;98.40
16412;DHT22;8315;52.104;6.304;2023-03-01T05:04:53;-1.40;98.40
16412;DHT22;8315;52.104;6.304;2023-03-01T05:07:23;-1.40;98.40
16412;DHT22;8315;52.104;6.304;2023-03-01T05:09:51;-1.40;98.40
16412;DHT22;8315;52.104;6.304;2023-03-01T05:12:18;-1.50;98.40
16412;DHT22;8315;52.104;6.304;2023-03-01T05:14:46;-1.50;98.40
16412;DHT22;8315;52.104;6.304;2023-03-01T05:17:13;-1.50;98.40
16412;DHT22;8315;52.104;6.304;2023-03-01T05:19:40;-1.50;98.40
16412;DHT22;8315;52.104;6.304;2023-03-01T05:22:07;-1.50;98.40
16412;DHT22;8315;52.104;6.304;2023-03-01T05:24:35;-1.40;98.40
16412;DHT22;8315;52.104;6.304;2023-03-01T05:27:02;-1.50;98.40
16412;DHT22;8315;52.104;6.304;2023-03-01T05:29:30;-1.50;98.40
16412;DHT22;8315;52.104;6.304;2023-03-01T05:32:01;-1.50;98.40
16412;DHT22;8315;52.104;6.304;2023-03-01T05:34:29;-1.50;98.40
16412;DHT22;8315;52.104;6.304;2023-03-01T05:36:57;-1.60;98.40
16412;DHT22;8315;52.104;6.304;2023-03-01T05:39:25;-1.70;98.40
16412;DHT22;8315;52.104;6.304;2023-03-01T05:41:53;-1.70;98.40
16412;DHT22;8315;52.104;6.304;2023-03-01T05:44:20;-1.70;98.40
16412;DHT22;8315;52.104;6.304;2023-03-01T05:46:47;-1.70;98.40
16412;DHT22;8315;52.104;6.304;2023-03-01T05:49:16;-1.60;98.40
16412;DHT22;8315;52.104;6.304;2023-03-01T05:51:45;-1.60;98.40
16412;DHT22;8315;52.104;6.304;2023-03-01T05:54:14;-1.60;98.40
16412;DHT22;8315;52.104;6.304;2023-03-01T05:56:41;-1.70;98.40
16412;DHT22;8315;52.104;6.304;2023-03-01T05:59:09;-1.60;98.40
16412;DHT22;8315;52.104;6.304;2023-03-01T06:01:36;-1.60;98.40
16412;DHT22;8315;52.104;6.304;2023-03-01T06:04:03;-1.60;98.40
16412;DHT22;8315;52.104;6.304;2023-03-01T06:06:34;-1.60;98.40
16412;DHT22;8315;52.104;6.304;2023-03-01T06:09:02;-1.70;98.40
16412;DHT22;8315;52.104;6.304;2023-03-01T06:11:29;-1.80;98.40
16412;DHT22;8315;52.104;6.304;2023-03-01T06:13:56;-1.80;98.40
16412;DHT22;8315;52.104;6.304;2023-03-01T06:16:23;-1.80;98.40
16412;DHT22;8315;52.104;6.304;2023-03-01T06:18:50;-1.80;98.40
16412;DHT22;8315;52.104;6.304;2023-03-01T06:21:17;-1.80;98.40
16412;DHT22;8315;52.104;6.304;2023-03-01T06:23:45;-1.70;98.40
16412;DHT22;8315;52.104;6.304;2023-03-01T06:26:11;-1.80;98.40
16412;DHT22;8315;52.104;6.304;2023-03-01T06:28:38;-1.90;98.40
16412;DHT22;8315;52.104;6.304;2023-03-01T06:31:05;-2.00;98.40
16412;DHT22;8315;52.104;6.304;2023-03-01T06:33:33;-1.90;98.40
16412;DHT22;8315;52.104;6.304;2023-03-01T06:36:01;-1.80;98.40
16412;DHT22;8315;52.104;6.304;2023-03-01T06:38:28;-1.80;98.40
16412;DHT22;8315;52.104;6.304;2023-03-01T06:40:56;-1.70;98.40
16412;DHT22;8315;52.104;6.304;2023-03-01T06:43:23;-1.70;98.40
16412;DHT22;8315;52.104;6.304;2023-03-01T06:45:50;-1.70;98.40
16412;DHT22;8315;52.104;6.304;2023-03-01T06:48:17;-1.80;98.40
16412;DHT22;8315;52.104;6.304;2023-03-01T06:50:44;-1.80;98.40
16412;DHT22;8315;52.104;6.304;2023-03-01T06:53:11;-1.80;98.40
16412;DHT22;8315;52.104;6.304;2023-03-01T06:55:37;-1.70;98.40
16412;DHT22;8315;52.104;6.304;2023-03-01T06:58:05;-1.70;98.40
16412;DHT22;8315;52.104;6.304;2023-03-01T07:00:32;-1.60;98.40
16412;DHT22;8315;52.104;6.304;2023-03-01T07:02:59;-1.70;98.40
16412;DHT22;8315;52.104;6.304;2023-03-01T07:05:27;-1.70;98.40
16412;DHT22;8315;52.104;6.304;2023-03-01T07:07:54;-1.60;98.40
16412;DHT22;8315;52.104;6.304;2023-03-01T07:10:22;-1.60;98.40
16412;DHT22;8315;52.104;6.304;2023-03-01T07:12:49;-1.50;98.40
16412;DHT22;8315;52.104;6.304;2023-03-01T07:15:17;-1.50;98.40
16412;DHT22;8315;52.104;6.304;2023-03-01T07:17:44;-1.50;98.40
16412;DHT22;8315;52.104;6.304;2023-03-01T07:20:13;-1.30;98.40
16412;DHT22;8315;52.104;6.304;2023-03-01T07:22:40;-1.30;98.40
16412;DHT22;8315;52.104;6.304;2023-03-01T07:25:08;-1.30;98.40
16412;DHT22;8315;52.104;6.304;2023-03-01T07:27:35;-1.30;98.40
16412;DHT22;8315;52.104;6.304;2023-03-01T07:30:02;-1.20;98.40
16412;DHT22;8315;52.104;6.304;2023-03-01T07:32:31;-1.10;98.40
16412;DHT22;8315;52.104;6.304;2023-03-01T07:34:58;-1.00;98.40
16412;DHT22;8315;52.104;6.304;2023-03-01T07:37:25;-0.90;98.40
16412;DHT22;8315;52.104;6.304;2023-03-01T07:39:51;-0.80;98.40
16412;DHT22;8315;52.104;6.304;2023-03-01T07:42:18;-0.80;98.40
16412;DHT22;8315;52.104;6.304;2023-03-01T07:44:45;-0.70;98.40
16412;DHT22;8315;52.104;6.304;2023-03-01T07:47:12;-0.60;98.40
16412;DHT22;8315;52.104;6.304;2023-03-01T07:49:40;-0.60;98.40
16412;DHT22;8315;52.104;6.304;2023-03-01T07:52:08;-0.50;98.40
16412;DHT22;8315;52.104;6.304;2023-03-01T07:54:36;-0.40;98.40
16412;DHT22;8315;52.104;6.304;2023-03-01T07:57:03;-0.30;98.40
16412;DHT22;8315;52.104;6.304;2023-03-01T07:59:30;-0.30;98.40
16412;DHT22;8315;52.104;6.304;2023-03-01T08:01:57;-0.20;98.40
16412;DHT22;8315;52.104;6.304;2023-03-01T08:04:24;-0.10;98.40
16412;DHT22;8315;52.104;6.304;2023-03-01T08:06:53;0.00;98.40
16412;DHT22;8315;52.104;6.304;2023-03-01T08:09:21;0.10;98.40
16412;DHT22;8315;52.104;6.304;2023-03-01T08:11:48;0.10;98.40
16412;DHT22;8315;52.104;6.304;2023-03-01T08:14:15;0.20;98.40
16412;DHT22;8315;52.104;6.304;2023-03-01T08:16:41;0.30;98.40
16412;DHT22;8315;52.104;6.304;2023-03-01T08:19:09;0.40;98.40
16412;DHT22;8315;52.104;6.304;2023-03-01T08:21:37;0.50;98.40
16412;DHT22;8315;52.104;6.304;2023-03-01T08:24:06;0.60;98.40
16412;DHT22;8315;52.104;6.304;2023-03-01T08:26:35;0.70;98.40
16412;DHT22;8315;52.104;6.304;2023-03-01T08:29:02;0.80;98.40
16412;DHT22;8315;52.104;6.304;2023-03-01T08:31:30;0.90;98.40
16412;DHT22;8315;52.104;6.304;2023-03-01T08:33:59;1.00;98.40
16412;DHT22;8315;52.104;6.304;2023-03-01T08:36:27;1.10;98.40
16412;DHT22;8315;52.104;6.304;2023-03-01T08:38:55;1.30;98.40
16412;DHT22;8315;52.104;6.304;2023-03-01T08:41:23;1.40;98.40
16412;DHT22;8315;52.104;6.304;2023-03-01T08:43:50;1.50;98.40
16412;DHT22;8315;52.104;6.304;2023-03-01T08:46:18;1.70;98.40
16412;DHT22;8315;52.104;6.304;2023-03-01T08:48:44;1.80;98.40
16412;DHT22;8315;52.104;6.304;2023-03-01T08:51:12;2.00;98.40
16412;DHT22;8315;52.104;6.304;2023-03-01T08:53:40;2.20;98.40
16412;DHT22;8315;52.104;6.304;2023-03-01T08:56:07;2.40;98.40
16412;DHT22;8315;52.104;6.304;2023-03-01T08:58:35;2.60;98.40
16412;DHT22;8315;52.104;6.304;2023-03-01T09:01:06;2.70;98.40
16412;DHT22;8315;52.104;6.304;2023-03-01T09:03:33;2.90;98.40
16412;DHT22;8315;52.104;6.304;2023-03-01T09:06:00;3.20;98.40
16412;DHT22;8315;52.104;6.304;2023-03-01T09:08:28;3.50;98.40
16412;DHT22;8315;52.104;6.304;2023-03-01T09:10:54;3.70;98.40
16412;DHT22;8315;52.104;6.304;2023-03-01T09:13:21;3.90;98.30
16412;DHT22;8315;52.104;6.304;2023-03-01T09:15:51;3.90;96.50
16412;DHT22;8315;52.104;6.304;2023-03-01T09:18:18;4.00;96.60
16412;DHT22;8315;52.104;6.304;2023-03-01T09:20:45;4.30;96.50
16412;DHT22;8315;52.104;6.304;2023-03-01T09:23:11;4.40;96.20
16412;DHT22;8315;52.104;6.304;2023-03-01T09:25:38;4.80;96.70
16412;DHT22;8315;52.104;6.304;2023-03-01T09:28:07;4.90;95.10
16412;DHT22;8315;52.104;6.304;2023-03-01T09:30:34;5.00;95.00
16412;DHT22;8315;52.104;6.304;2023-03-01T09:33:02;5.20;94.90
16412;DHT22;8315;52.104;6.304;2023-03-01T09:35:29;5.20;93.20
16412;DHT22;8315;52.104;6.304;2023-03-01T09:37:55;5.10;93.20
16412;DHT22;8315;52.104;6.304;2023-03-01T09:40:22;5.20;93.00
16412;DHT22;8315;52.104;6.304;2023-03-01T09:42:52;5.20;92.50
16412;DHT22;8315;52.104;6.304;2023-03-01T09:45:25;5.20;92.50
16412;DHT22;8315;52.104;6.304;2023-03-01T09:47:54;5.30;92.40
16412;DHT22;8315;52.104;6.304;2023-03-01T09:50:23;5.40;90.50
16412;DHT22;8315;52.104;6.304;2023-03-01T09:52:54;5.40;91.00
16412;DHT22;8315;52.104;6.304;2023-03-01T09:55:37;5.40;91.00
16412;DHT22;8315;52.104;6.304;2023-03-01T09:58:13;5.70;91.20
16412;DHT22;8315;52.104;6.304;2023-03-01T10:00:53;5.70;89.90
16412;DHT22;8315;52.104;6.304;2023-03-01T10:03:24;5.70;90.80
16412;DHT22;8315;52.104;6.304;2023-03-01T10:05:57;5.60;90.50
16412;DHT22;8315;52.104;6.304;2023-03-01T10:08:28;5.50;89.90
16412;DHT22;8315;52.104;6.304;2023-03-01T10:10:59;5.60;89.90
16412;DHT22;8315;52.104;6.304;2023-03-01T10:13:27;5.40;89.10
16412;DHT22;8315;52.104;6.304;2023-03-01T10:16:10;5.50;88.20
16412;DHT22;8315;52.104;6.304;2023-03-01T10:18:39;5.60;88.10
16412;DHT22;8315;52.104;6.304;2023-03-01T10:21:09;5.60;87.80
16412;DHT22;8315;52.104;6.304;2023-03-01T10:23:41;5.40;87.40
16412;DHT22;8315;52.104;6.304;2023-03-01T10:26:22;5.40;88.00
16412;DHT22;8315;52.104;6.304;2023-03-01T10:28:58;5.40;87.60
16412;DHT22;8315;52.104;6.304;2023-03-01T10:31:32;5.60;87.70
16412;DHT22;8315;52.104;6.304;2023-03-01T10:34:06;5.70;89.40
16412;DHT22;8315;52.104;6.304;2023-03-01T10:36:36;6.10;89.10
16412;DHT22;8315;52.104;6.304;2023-03-01T10:39:11;6.00;87.80
16412;DHT22;8315;52.104;6.304;2023-03-01T10:41:44;6.10;87.90
16412;DHT22;8315;52.104;6.304;2023-03-01T10:44:34;5.90;86.10
16412;DHT22;8315;52.104;6.304;2023-03-01T10:47:09;5.90;86.70
16412;DHT22;8315;52.104;6.304;2023-03-01T10:49:46;6.00;86.50
16412;DHT22;8315;52.104;6.304;2023-03-01T10:52:20;5.90;86.20
16412;DHT22;8315;52.104;6.304;2023-03-01T10:54:51;5.80;86.60
16412;DHT22;8315;52.104;6.304;2023-03-01T10:57:33;5.80;86.80
16412;DHT22;8315;52.104;6.304;2023-03-01T11:03:03;6.00;86.80
16412;DHT22;8315;52.104;6.304;2023-03-01T11:05:37;6.20;86.30
16412;DHT22;8315;52.104;6.304;2023-03-01T11:08:29;6.20;85.20
16412;DHT22;8315;52.104;6.304;2023-03-01T11:11:05;6.20;85.50
16412;DHT22;8315;52.104;6.304;2023-03-01T11:13:50;6.40;84.30
16412;DHT22;8315;52.104;6.304;2023-03-01T11:16:23;6.30;83.50
16412;DHT22;8315;52.104;6.304;2023-03-01T11:18:58;6.20;83.40
16412;DHT22;8315;52.104;6.304;2023-03-01T11:21:26;6.30;83.40
16412;DHT22;8315;52.104;6.304;2023-03-01T11:23:56;6.70;84.20
16412;DHT22;8315;52.104;6.304;2023-03-01T11:26:24;6.60;81.80
16412;DHT22;8315;52.104;6.304;2023-03-01T11:28:51;6.70;83.00
16412;DHT22;8315;52.104;6.304;2023-03-01T11:31:20;6.70;81.70
16412;DHT22;8315;52.104;6.304;2023-03-01T11:33:49;6.80;82.10
16412;DHT22;8315;52.104;6.304;2023-03-01T11:36:18;7.00;80.80
16412;DHT22;8315;52.104;6.304;2023-03-01T11:38:50;7.10;79.90
16412;DHT22;8315;52.104;6.304;2023-03-01T11:41:20;7.00;79.90
16412;DHT22;8315;52.104;6.304;2023-03-01T11:43:49;7.20;80.00
16412;DHT22;8315;52.104;6.304;2023-03-01T11:46:43;7.10;79.00
16412;DHT22;8315;52.104;6.304;2023-03-01T11:49:33;7.10;79.10
16412;DHT22;8315;52.104;6.304;2023-03-01T11:52:08;7.10;78.90
16412;DHT22;8315;52.104;6.304;2023-03-01T11:54:44;7.50;79.20
16412;DHT22;8315;52.104;6.304;2023-03-01T11:57:25;7.40;77.80
16412;DHT22;8315;52.104;6.304;2023-03-01T12:00:07;7.70;79.60
16412;DHT22;8315;52.104;6.304;2023-03-01T12:06:01;7.70;78.10
16412;DHT22;8315;52.104;6.304;2023-03-01T12:08:50;7.70;77.70
16412;DHT22;8315;52.104;6.304;2023-03-01T12:11:23;7.70;77.00
16412;DHT22;8315;52.104;6.304;2023-03-01T12:14:07;7.60;77.20
16412;DHT22;8315;52.104;6.304;2023-03-01T12:16:52;7.90;77.30
16412;DHT22;8315;52.104;6.304;2023-03-01T12:22:25;8.10;76.50
16412;DHT22;8315;52.104;6.304;2023-03-01T12:25:16;8.20;76.20
16412;DHT22;8315;52.104;6.304;2023-03-01T12:27:51;8.30;75.50
16412;DHT22;8315;52.104;6.304;2023-03-01T12:30:32;8.30;75.70
16412;DHT22;8315;52.104;6.304;2023-03-01T12:33:10;8.40;75.30
16412;DHT22;8315;52.104;6.304;2023-03-01T12:35:47;8.90;75.80
16412;DHT22;8315;52.104;6.304;2023-03-01T12:38:36;9.30;73.90
16412;DHT22;8315;52.104;6.304;2023-03-01T12:44:01;8.80;74.00
16412;DHT22;8315;52.104;6.304;2023-03-01T12:46:41;8.70;73.50
16412;DHT22;8315;52.104;6.304;2023-03-01T12:49:19;8.80;72.60
16412;DHT22;8315;52.104;6.304;2023-03-01T12:51:50;8.90;73.30
16412;DHT22;8315;52.104;6.304;2023-03-01T12:54:22;9.10;74.10
16412;DHT22;8315;52.104;6.304;2023-03-01T12:56:53;9.40;71.80
16412;DHT22;8315;52.104;6.304;2023-03-01T12:59:21;9.10;70.60
16412;DHT22;8315;52.104;6.304;2023-03-01T13:01:55;8.80;71.20
16412;DHT22;8315;52.104;6.304;2023-03-01T13:04:30;8.90;71.40
16412;DHT22;8315;52.104;6.304;2023-03-01T13:07:19;9.00;72.50
16412;DHT22;8315;52.104;6.304;2023-03-01T13:09:51;9.10;71.50
16412;DHT22;8315;52.104;6.304;2023-03-01T13:12:43;9.00;71.50
16412;DHT22;8315;52.104;6.304;2023-03-01T13:18:03;9.60;71.90
16412;DHT22;8315;52.104;6.304;2023-03-01T13:20:32;9.60;72.40
16412;DHT22;8315;52.104;6.304;2023-03-01T13:23:02;9.90;71.40
16412;DHT22;8315;52.104;6.304;2023-03-01T13:25:31;9.70;69.70
16412;DHT22;8315;52.104;6.304;2023-03-01T13:30:58;10.00;70.70
16412;DHT22;8315;52.104;6.304;2023-03-01T13:33:42;10.30;70.10
16412;DHT22;8315;52.104;6.304;2023-03-01T13:36:11;10.10;69.60
16412;DHT22;8315;52.104;6.304;2023-03-01T13:38:46;9.80;69.80
16412;DHT22;8315;52.104;6.304;2023-03-01T13:41:14;9.80;70.60
16412;DHT22;8315;52.104;6.304;2023-03-01T13:43:42;9.60;70.80
16412;DHT22;8315;52.104;6.304;2023-03-01T13:46:11;9.80;70.70
16412;DHT22;8315;52.104;6.304;2023-03-01T13:48:43;10.00;70.10
16412;DHT22;8315;52.104;6.304;2023-03-01T13:51:11;10.20;69.30
16412;DHT22;8315;52.104;6.304;2023-03-01T13:53:40;10.40;68.60
16412;DHT22;8315;52.104;6.304;2023-03-01T13:56:09;10.30;69.20
16412;DHT22;8315;52.104;6.304;2023-03-01T13:58:49;10.10;68.50
16412;DHT22;8315;52.104;6.304;2023-03-01T14:01:24;10.20;68.20
16412;DHT22;8315;52.104;6.304;2023-03-01T14:03:54;10.20;67.70
16412;DHT22;8315;52.104;6.304;2023-03-01T14:06:22;10.20;67.30
16412;DHT22;8315;52.104;6.304;2023-03-01T14:08:50;10.50;67.70
16412;DHT22;8315;52.104;6.304;2023-03-01T14:14:23;10.10;66.40
16412;DHT22;8315;52.104;6.304;2023-03-01T14:17:08;10.40;67.50
16412;DHT22;8315;52.104;6.304;2023-03-01T14:19:43;10.70;66.70
16412;DHT22;8315;52.104;6.304;2023-03-01T14:22:12;10.60;67.00
16412;DHT22;8315;52.104;6.304;2023-03-01T14:24:44;10.90;68.20
16412;DHT22;8315;52.104;6.304;2023-03-01T14:27:14;11.10;67.30
16412;DHT22;8315;52.104;6.304;2023-03-01T14:29:42;10.80;68.00
16412;DHT22;8315;52.104;6.304;2023-03-01T14:32:10;11.10;68.40
16412;DHT22;8315;52.104;6.304;2023-03-01T14:34:43;11.50;67.20
16412;DHT22;8315;52.104;6.304;2023-03-01T14:37:11;11.30;65.60
16412;DHT22;8315;52.104;6.304;2023-03-01T14:39:45;11.10;66.00
16412;DHT22;8315;52.104;6.304;2023-03-01T14:42:13;10.90;66.50
16412;DHT22;8315;52.104;6.304;2023-03-01T14:44:40;10.90;66.70
16412;DHT22;8315;52.104;6.304;2023-03-01T14:47:10;11.10;66.20
16412;DHT22;8315;52.104;6.304;2023-03-01T14:49:38;11.10;66.40
16412;DHT22;8315;52.104;6.304;2023-03-01T14:52:16;11.00;66.30
16412;DHT22;8315;52.104;6.304;2023-03-01T14:54:46;11.20;65.50
16412;DHT22;8315;52.104;6.304;2023-03-01T14:57:15;11.00;65.90
16412;DHT22;8315;52.104;6.304;2023-03-01T14:59:43;10.80;65.70
16412;DHT22;8315;52.104;6.304;2023-03-01T15:02:11;10.50;66.20
16412;DHT22;8315;52.104;6.304;2023-03-01T15:04:42;10.50;66.50
16412;DHT22;8315;52.104;6.304;2023-03-01T15:07:12;11.20;66.70
16412;DHT22;8315;52.104;6.304;2023-03-01T15:09:39;11.50;66.30
16412;DHT22;8315;52.104;6.304;2023-03-01T15:12:33;11.60;65.80
16412;DHT22;8315;52.104;6.304;2023-03-01T15:15:08;11.30;64.60
16412;DHT22;8315;52.104;6.304;2023-03-01T15:17:48;11.30;64.90
16412;DHT22;8315;52.104;6.304;2023-03-01T15:20:19;11.40;64.80
16412;DHT22;8315;52.104;6.304;2023-03-01T15:22:48;10.90;64.40
16412;DHT22;8315;52.104;6.304;2023-03-01T15:25:15;10.60;65.40
16412;DHT22;8315;52.104;6.304;2023-03-01T15:27:45;10.50;66.00
16412;DHT22;8315;52.104;6.304;2023-03-01T15:30:13;10.70;66.30
16412;DHT22;8315;52.104;6.304;2023-03-01T15:32:44;11.10;65.40
16412;DHT22;8315;52.104;6.304;2023-03-01T15:35:37;11.10;65.60
16412;DHT22;8315;52.104;6.304;2023-03-01T15:40:54;11.10;64.60
16412;DHT22;8315;52.104;6.304;2023-03-01T15:43:38;11.20;64.20
16412;DHT22;8315;52.104;6.304;2023-03-01T15:46:12;10.90;64.60
16412;DHT22;8315;52.104;6.304;2023-03-01T15:48:44;10.70;65.80
16412;DHT22;8315;52.104;6.304;2023-03-01T15:51:12;10.90;65.60
16412;DHT22;8315;52.104;6.304;2023-03-01T15:53:41;11.10;65.20
16412;DHT22;8315;52.104;6.304;2023-03-01T15:56:10;10.70;65.80
16412;DHT22;8315;52.104;6.304;2023-03-01T15:58:36;10.70;66.70
16412;DHT22;8315;52.104;6.304;2023-03-01T16:01:07;10.80;66.90
16412;DHT22;8315;52.104;6.304;2023-03-01T16:03:38;10.90;67.00
16412;DHT22;8315;52.104;6.304;2023-03-01T16:06:04;11.00;66.50
16412;DHT22;8315;52.104;6.304;2023-03-01T16:08:31;11.00;66.40
16412;DHT22;8315;52.104;6.304;2023-03-01T16:11:00;11.10;66.30
16412;DHT22;8315;52.104;6.304;2023-03-01T16:13:30;10.90;66.60
16412;DHT22;8315;52.104;6.304;2023-03-01T16:15:57;10.50;66.80
16412;DHT22;8315;52.104;6.304;2023-03-01T16:18:23;10.40;67.80
16412;DHT22;8315;52.104;6.304;2023-03-01T16:20:50;10.20;68.50
16412;DHT22;8315;52.104;6.304;2023-03-01T16:23:18;10.30;68.90
16412;DHT22;8315;52.104;6.304;2023-03-01T16:25:44;10.30;69.10
16412;DHT22;8315;52.104;6.304;2023-03-01T16:28:13;10.60;69.30
16412;DHT22;8315;52.104;6.304;2023-03-01T16:30:40;10.80;69.10
16412;DHT22;8315;52.104;6.304;2023-03-01T16:33:06;10.90;69.30
16412;DHT22;8315;52.104;6.304;2023-03-01T16:35:38;10.70;69.20